Ewing, Missouri
Current Conditions -  °F | °C
As of 10:54 PM on Saturday 22 Nov 2014 (Local Time) from KUIN Reporting Station
Overcast Overcast  
Wind Chill: 53°   Ceiling: 1600
Heat Index: 53°   Visibility: 10mi
Dew Point: 49°   Wind: 13mph
Humidity: 86%   Direction: 190°S
Pressure: 29.79"   Gusts: NA
Location:  40.01°N, 91.71°W
Report Text: KUIN 230454Z AUTO 19011KT 10SM OVC016 12/09 A2979 RMK AO2 SLP086 T01170094
Loading
Personal Weather Stations






























Interactive Weather Map New forecast layout! Learn more

10-Day Weather Forecast

Advertisements
Track Severe Weather on mobile